Skip Navigation Links Skip Navigation Links

Current Weather

Oakland County International, Pontiac, Mich.

For information only: do not use for flight planning or navigation.
Latest weather
Observation time Saturday, October 19, 2019 5:53 AM EDT
Local time Saturday, October 19, 2019 7:03 AM EDT
Flight conditions Visual Meteorological Conditions
Winds
Wind direction East (80°)
Wind speed 3 mph
Visibility 5 mi.
Present weather fog patches, mist
Sky condition
Ceiling unlimited
Cloud layer few clouds 25,000 ft.
Temperature 35°F
Dewpoint 33°F
Altimeter 30.00 in.Hg
Derived measurements
Relative humidity 92%
Wind chill 32°F
Density altitude -635 ft.
Sea-level pressure 30.01 in.Hg
Remarks
Automated weather observing station with precipitation discriminator.
METAR KPTK 190953Z 08003KT 5SM BCFG BR FEW250 02/01 A3000 RMK AO2 SLP163 T00170006

Settings

Location code

InnerDrive.Weather 4.0.6770.0 Release CLR 4.0.30319.42000
Copyright ©2018 Inner Drive Technology. All rights reserved. Portions Copyright ©1986-2018 David Braverman.

Find weather

Site navigation


Skip Navigation Links

Place info

Page info

PayPal - The safer, easier way to pay online!

Return home.

Copyright ©2019 Inner Drive Technology. Purveyors of fine, hand-crafted computer software. Page printed 2019-10-19T11:03:59 UTC.